Time;durP1;ratioP1;P1;durP2;ratioP2;P2;SDS_P1;SDS_P2;PMS_P1;PMS_P2;Temp;Humidity;BMP_temperature;BMP_pressure;BME280_temperature;BME280_humidity;BME280_pressure;Samples;Min_cycle;Max_cycle;Signal;HPM_P1;HPM_P2
2020/12/21 00:00:13;;;;;;;13.45;3.40;;;5.30;99.90;;;;;;5008647;28;20026;-62
2020/12/21 00:02:39;;;;;;;9.90;2.92;;;5.20;99.90;;;;;;5011645;28;20030;-62
2020/12/21 00:05:05;;;;;;;13.52;3.72;;;5.20;99.90;;;;;;5009680;28;20022;-63
2020/12/21 00:07:31;;;;;;;16.42;4.75;;;5.10;99.90;;;;;;5008038;28;20116;-62
2020/12/21 00:09:57;;;;;;;14.10;3.28;;;5.10;99.90;;;;;;5009915;28;20038;-62
2020/12/21 00:12:23;;;;;;;9.43;3.00;;;5.10;99.90;;;;;;5010266;28;20403;-62
2020/12/21 00:14:48;;;;;;;18.20;3.92;;;5.00;99.90;;;;;;5010303;28;20144;-63
2020/12/21 00:17:14;;;;;;;11.00;3.03;;;5.00;99.90;;;;;;5013404;28;20030;-62
2020/12/21 00:19:39;;;;;;;12.68;3.38;;;5.00;99.90;;;;;;5019403;28;20017;-62
2020/12/21 00:22:05;;;;;;;15.63;2.97;;;4.90;99.90;;;;;;5016736;28;20025;-62
2020/12/21 00:24:30;;;;;;;12.48;2.90;;;4.90;99.90;;;;;;5011077;28;20018;-61
2020/12/21 00:26:56;;;;;;;11.25;3.33;;;4.80;99.90;;;;;;5009990;28;20030;-63
2020/12/21 00:29:21;;;;;;;18.25;2.70;;;4.80;99.90;;;;;;5011639;28;20033;-62
2020/12/21 00:31:48;;;;;;;10.63;2.47;;;4.80;99.90;;;;;;5023760;28;20092;-62
2020/12/21 00:34:14;;;;;;;7.35;2.42;;;4.80;99.90;;;;;;5017896;28;20037;-62
2020/12/21 00:36:47;;;;;;;9.82;2.88;;;4.70;99.90;;;;;;5020742;28;20064;-60
2020/12/21 00:39:12;;;;;;;14.07;4.53;;;4.70;99.90;;;;;;5027897;28;20368;-63
2020/12/21 00:41:39;;;;;;;13.38;2.22;;;4.70;99.90;;;;;;5022909;28;20045;-62
2020/12/21 00:44:05;;;;;;;13.43;2.92;;;4.80;99.90;;;;;;5027636;28;20113;-63
2020/12/21 00:46:31;;;;;;;11.35;2.92;;;4.90;99.90;;;;;;5025154;28;20073;-62
2020/12/21 00:48:58;;;;;;;14.13;3.15;;;4.90;99.90;;;;;;5024613;28;20040;-63
2020/12/21 00:51:24;;;;;;;12.18;2.33;;;4.90;99.90;;;;;;5024957;28;20084;-61
2020/12/21 00:53:50;;;;;;;12.50;2.78;;;4.90;99.90;;;;;;5023354;28;20542;-63
2020/12/21 00:56:17;;;;;;;13.48;5.28;;;4.90;99.90;;;;;;5025855;28;20554;-63
2020/12/21 00:58:45;;;;;;;14.13;3.30;;;4.90;99.90;;;;;;5022450;28;20065;-62
2020/12/21 01:01:13;;;;;;;14.80;2.97;;;4.80;99.90;;;;;;5025685;28;20074;-63
2020/12/21 01:03:38;;;;;;;19.98;3.30;;;4.80;99.90;;;;;;5023051;28;20029;-63
2020/12/21 01:06:05;;;;;;;13.77;4.82;;;4.70;99.90;;;;;;5025462;28;20376;-62
2020/12/21 01:08:30;;;;;;;13.80;3.03;;;4.70;99.90;;;;;;5024480;28;20037;-62
2020/12/21 01:10:56;;;;;;;12.68;3.42;;;4.60;99.90;;;;;;5024337;28;20026;-63
2020/12/21 01:13:22;;;;;;;10.23;2.88;;;4.60;99.90;;;;;;5017028;28;20033;-61
2020/12/21 01:15:47;;;;;;;11.93;2.63;;;4.60;99.90;;;;;;5025178;28;20030;-62
2020/12/21 01:18:13;;;;;;;18.13;3.33;;;4.70;99.90;;;;;;5025564;28;20017;-62
2020/12/21 01:20:40;;;;;;;16.20;3.10;;;4.70;99.90;;;;;;5023359;28;20028;-63
2020/12/21 01:23:06;;;;;;;15.65;3.05;;;4.80;99.90;;;;;;5036386;28;20040;-62
2020/12/21 01:25:31;;;;;;;12.55;2.90;;;4.80;99.90;;;;;;5020774;28;20030;-61
2020/12/21 01:27:57;;;;;;;12.25;2.83;;;4.70;99.90;;;;;;5018046;28;20029;-62
2020/12/21 01:30:22;;;;;;;13.95;2.95;;;4.70;99.90;;;;;;5023978;28;20542;-61
2020/12/21 01:32:48;;;;;;;16.55;3.17;;;4.70;99.90;;;;;;5022342;28;20022;-62
2020/12/21 01:35:15;;;;;;;14.15;2.83;;;4.60;99.90;;;;;;5018075;28;20022;-62
2020/12/21 01:37:40;;;;;;;15.00;3.30;;;4.60;99.90;;;;;;5013519;28;20273;-62
2020/12/21 01:40:07;;;;;;;20.08;3.10;;;4.50;99.90;;;;;;5012798;28;20095;-63
2020/12/21 01:42:33;;;;;;;16.00;3.22;;;4.40;99.90;;;;;;5020813;28;20030;-63
2020/12/21 01:44:58;;;;;;;13.18;3.35;;;4.40;99.90;;;;;;5027959;28;20159;-62
2020/12/21 01:47:24;;;;;;;10.18;2.58;;;4.30;99.90;;;;;;5023003;28;20527;-61
2020/12/21 01:50:10;;;;;;;10.95;2.88;;;4.30;99.90;;;;;;5021812;28;20037;-61
2020/12/21 01:52:36;;;;;;;17.85;4.13;;;4.20;99.90;;;;;;5015132;28;20124;-62
2020/12/21 01:55:02;;;;;;;17.13;3.70;;;4.20;99.90;;;;;;5023537;28;20527;-61
2020/12/21 01:57:28;;;;;;;11.85;3.70;;;4.20;99.90;;;;;;5012276;28;20388;-61
2020/12/21 01:59:54;;;;;;;16.58;5.53;;;4.20;99.90;;;;;;5024431;28;20036;-62
2020/12/21 02:02:20;;;;;;;16.33;3.88;;;4.20;99.90;;;;;;5021509;28;20458;-62
2020/12/21 02:04:45;;;;;;;14.55;3.05;;;4.20;99.90;;;;;;5018115;28;20105;-62
2020/12/21 02:07:13;;;;;;;11.68;3.28;;;4.20;99.90;;;;;;5019756;28;20034;-63
2020/12/21 02:09:39;;;;;;;16.25;5.07;;;4.20;99.90;;;;;;5013047;28;20059;-61
2020/12/21 02:12:05;;;;;;;14.57;3.33;;;4.20;99.90;;;;;;5020691;28;20488;-61
2020/12/21 02:14:30;;;;;;;13.93;3.55;;;4.30;99.90;;;;;;5017400;28;20084;-62
2020/12/21 02:16:56;;;;;;;17.60;4.20;;;4.20;99.90;;;;;;5024430;28;20022;-63
2020/12/21 02:19:21;;;;;;;12.68;3.83;;;4.20;99.90;;;;;;5019700;28;20033;-62
2020/12/21 02:21:47;;;;;;;14.98;3.10;;;4.30;99.90;;;;;;5017388;28;20034;-62
2020/12/21 02:24:13;;;;;;;15.57;2.67;;;4.30;99.90;;;;;;5015648;28;20034;-63
2020/12/21 02:26:39;;;;;;;9.38;2.45;;;4.30;99.90;;;;;;5022687;28;20068;-63
2020/12/21 02:29:05;;;;;;;16.80;3.17;;;4.30;99.90;;;;;;5019155;28;20021;-62
2020/12/21 02:31:30;;;;;;;19.90;4.43;;;4.30;99.90;;;;;;5020436;28;20044;-61
2020/12/21 02:33:56;;;;;;;15.43;2.85;;;4.30;99.90;;;;;;5018027;28;20030;-61
2020/12/21 02:36:22;;;;;;;20.85;3.65;;;4.30;99.90;;;;;;5018262;28;20088;-63
2020/12/21 02:38:47;;;;;;;14.57;2.63;;;4.20;99.90;;;;;;5016060;28;20475;-63
2020/12/21 02:41:15;;;;;;;17.35;2.90;;;4.20;99.90;;;;;;5024109;28;20049;-62
2020/12/21 02:43:41;;;;;;;22.67;3.20;;;4.20;99.90;;;;;;5026219;28;20071;-62
2020/12/21 02:46:07;;;;;;;14.18;2.88;;;4.10;99.90;;;;;;5019286;28;20065;-63
2020/12/21 02:48:33;;;;;;;15.07;3.25;;;4.10;99.90;;;;;;5027076;28;20037;-62
2020/12/21 02:50:59;;;;;;;13.65;2.95;;;4.10;99.90;;;;;;5018958;28;20028;-63
2020/12/21 02:53:24;;;;;;;14.90;3.20;;;4.10;99.90;;;;;;5012880;28;20041;-63
2020/12/21 02:55:50;;;;;;;11.15;3.00;;;4.10;99.90;;;;;;5020165;28;20030;-62
2020/12/21 02:58:15;;;;;;;15.10;3.22;;;4.00;99.90;;;;;;5021700;28;20037;-61
2020/12/21 03:00:41;;;;;;;16.50;3.15;;;4.00;99.90;;;;;;5023414;28;20090;-63
2020/12/21 03:03:07;;;;;;;18.98;3.88;;;4.00;99.90;;;;;;5024150;28;20030;-62
2020/12/21 03:05:33;;;;;;;14.52;3.17;;;4.10;99.90;;;;;;5021475;28;20030;-63
2020/12/21 03:08:00;;;;;;;13.73;2.70;;;4.10;99.90;;;;;;5019433;28;20068;-62
2020/12/21 03:10:25;;;;;;;16.23;3.47;;;4.10;99.90;;;;;;5013351;28;20165;-62
2020/12/21 03:12:52;;;;;;;17.50;2.95;;;4.10;99.90;;;;;;5024379;28;20466;-62
2020/12/21 03:15:17;;;;;;;18.77;3.63;;;4.10;99.90;;;;;;5019492;28;20022;-62
2020/12/21 03:17:43;;;;;;;16.85;2.83;;;4.10;99.90;;;;;;5025671;28;20026;-60
2020/12/21 03:20:08;;;;;;;14.35;2.85;;;4.10;99.90;;;;;;5013679;28;20036;-62
2020/12/21 03:22:34;;;;;;;8.88;2.50;;;4.10;99.90;;;;;;5026422;28;20037;-62
2020/12/21 03:25:00;;;;;;;13.82;2.38;;;4.10;99.90;;;;;;5012531;28;20037;-61
2020/12/21 03:27:26;;;;;;;15.40;2.78;;;4.10;99.90;;;;;;5014360;28;20061;-62
2020/12/21 03:29:52;;;;;;;9.93;2.85;;;4.10;99.90;;;;;;5019247;28;20033;-61
2020/12/21 03:32:18;;;;;;;13.25;2.42;;;4.10;99.90;;;;;;5019576;28;20101;-62
2020/12/21 03:34:44;;;;;;;9.25;2.30;;;4.10;99.90;;;;;;5018065;28;20029;-63
2020/12/21 03:37:09;;;;;;;20.85;2.88;;;4.20;99.90;;;;;;5015870;28;20515;-62
2020/12/21 03:39:35;;;;;;;20.50;3.85;;;4.10;99.90;;;;;;5026648;28;20029;-62
2020/12/21 03:42:01;;;;;;;14.73;3.00;;;4.10;99.90;;;;;;5014702;28;20033;-62
2020/12/21 03:44:26;;;;;;;10.18;2.85;;;4.00;99.90;;;;;;5018862;28;20030;-63
2020/12/21 03:46:52;;;;;;;10.85;2.38;;;4.00;99.90;;;;;;5022005;28;20084;-62
2020/12/21 03:49:18;;;;;;;14.35;2.83;;;3.90;99.90;;;;;;5023864;28;20052;-61
2020/12/21 03:51:43;;;;;;;12.13;3.15;;;3.90;99.90;;;;;;5016604;28;20075;-62
2020/12/21 03:54:09;;;;;;;23.20;3.67;;;3.90;99.90;;;;;;5020556;28;20490;-62
2020/12/21 03:56:34;;;;;;;19.35;2.90;;;3.80;99.90;;;;;;5019423;28;20029;-63
2020/12/21 03:59:00;;;;;;;9.95;3.55;;;3.70;99.90;;;;;;5018454;28;20025;-62
2020/12/21 04:01:25;;;;;;;9.73;2.45;;;3.70;99.90;;;;;;5019452;28;20026;-61
2020/12/21 04:03:51;;;;;;;11.80;3.13;;;3.70;99.90;;;;;;5020799;28;20037;-62
2020/12/21 04:06:18;;;;;;;25.08;2.58;;;3.70;99.90;;;;;;5022870;28;20032;-61
2020/12/21 04:08:43;;;;;;;15.45;3.35;;;3.70;99.90;;;;;;5011751;28;20033;-61
2020/12/21 04:11:09;;;;;;;10.30;3.35;;;3.80;99.90;;;;;;5019261;28;20018;-63
2020/12/21 04:13:35;;;;;;;12.88;3.55;;;3.80;99.90;;;;;;5024830;28;20495;-62
2020/12/21 04:16:00;;;;;;;12.02;2.70;;;3.80;99.90;;;;;;5018051;28;20022;-60
2020/12/21 04:18:26;;;;;;;18.73;2.38;;;3.90;99.90;;;;;;5018860;28;20030;-63
2020/12/21 04:20:51;;;;;;;12.63;2.83;;;3.90;99.90;;;;;;5018602;28;20187;-63
2020/12/21 04:23:17;;;;;;;14.65;2.83;;;4.00;99.90;;;;;;5028916;28;20511;-63
2020/12/21 04:25:42;;;;;;;7.13;2.67;;;4.00;99.90;;;;;;5017742;28;20148;-62
2020/12/21 04:28:08;;;;;;;13.15;2.80;;;4.00;99.90;;;;;;5026104;28;20025;-62
2020/12/21 04:30:33;;;;;;;21.63;2.65;;;4.00;99.90;;;;;;5021527;28;20164;-62
2020/12/21 04:32:59;;;;;;;11.73;2.78;;;4.00;99.90;;;;;;5025465;28;20101;-62
2020/12/21 04:35:25;;;;;;;13.70;2.80;;;4.00;99.90;;;;;;5023142;28;20029;-61
2020/12/21 04:37:50;;;;;;;12.32;2.72;;;3.90;99.90;;;;;;5020205;28;20418;-62
2020/12/21 04:40:19;;;;;;;13.43;2.60;;;3.90;99.90;;;;;;5029080;28;20479;-62
2020/12/21 04:42:53;;;;;;;11.70;2.75;;;3.90;99.90;;;;;;5018476;28;20429;-62
2020/12/21 04:45:19;;;;;;;13.03;2.73;;;3.90;99.90;;;;;;5019873;28;20083;-63
2020/12/21 04:47:45;;;;;;;14.32;2.92;;;3.80;99.90;;;;;;5025014;28;20825;-62
2020/12/21 04:50:13;;;;;;;12.13;2.53;;;3.70;99.90;;;;;;5025047;28;20117;-63
2020/12/21 04:52:50;;;;;;;23.58;4.50;;;3.70;99.90;;;;;;5023067;28;20032;-63
2020/12/21 04:55:19;;;;;;;14.32;2.55;;;3.70;99.90;;;;;;5020823;28;20025;-63
2020/12/21 04:58:01;;;;;;;16.00;2.88;;;3.80;99.90;;;;;;5025317;28;20068;-62
2020/12/21 05:00:29;;;;;;;18.85;3.50;;;3.80;99.90;;;;;;5012844;28;20070;-63
2020/12/21 05:02:55;;;;;;;14.55;3.55;;;3.80;99.90;;;;;;5024620;28;20386;-61
2020/12/21 05:05:47;;;;;;;21.88;4.22;;;3.80;99.90;;;;;;5012949;28;20029;-63
2020/12/21 05:08:17;;;;;;;25.10;3.63;;;3.90;99.90;;;;;;5007769;28;20048;-61
2020/12/21 05:10:45;;;;;;;20.98;3.25;;;3.90;99.90;;;;;;5018900;28;20058;-63
2020/12/21 05:13:12;;;;;;;21.23;3.63;;;4.00;99.90;;;;;;5022522;28;20071;-61
2020/12/21 05:15:38;;;;;;;17.95;4.03;;;4.00;99.90;;;;;;5018522;28;20503;-63
2020/12/21 05:18:08;;;;;;;19.48;3.35;;;4.10;99.90;;;;;;5020988;28;20018;-62
2020/12/21 05:20:39;;;;;;;17.48;3.22;;;4.10;99.90;;;;;;5016094;28;20037;-62
2020/12/21 05:23:06;;;;;;;22.55;3.63;;;4.20;99.90;;;;;;5029129;28;20101;-61
2020/12/21 05:25:32;;;;;;;16.58;5.68;;;4.20;99.90;;;;;;5016962;28;20502;-63
2020/12/21 05:28:09;;;;;;;15.90;3.50;;;4.20;99.90;;;;;;5021525;28;20463;-63
2020/12/21 05:30:34;;;;;;;14.55;3.55;;;4.20;99.90;;;;;;5017224;28;20025;-63
2020/12/21 05:33:00;;;;;;;13.63;3.50;;;4.20;99.90;;;;;;5017592;28;20045;-62
2020/12/21 05:35:29;;;;;;;14.88;3.35;;;4.20;99.90;;;;;;5020701;28;20022;-62
2020/12/21 05:37:55;;;;;;;19.73;3.25;;;4.20;99.90;;;;;;5015564;28;20030;-63
2020/12/21 05:40:25;;;;;;;14.43;2.95;;;4.30;99.90;;;;;;5022599;28;20442;-63
2020/12/21 05:42:51;;;;;;;9.10;3.20;;;4.30;99.90;;;;;;5015628;28;20376;-63
2020/12/21 05:45:17;;;;;;;10.50;2.92;;;4.30;99.90;;;;;;5023790;28;20032;-62
2020/12/21 05:47:49;;;;;;;7.95;2.78;;;4.30;99.90;;;;;;5023822;28;20041;-63
2020/12/21 05:50:20;;;;;;;12.35;3.25;;;4.30;99.90;;;;;;5023737;28;20061;-62
2020/12/21 05:52:52;;;;;;;26.83;4.78;;;4.30;99.90;;;;;;5021253;28;20487;-63
2020/12/21 05:55:20;;;;;;;20.70;3.10;;;4.30;99.90;;;;;;5018467;28;20052;-63
2020/12/21 05:57:48;;;;;;;14.27;3.15;;;4.40;99.90;;;;;;5024594;28;20025;-60
2020/12/21 06:00:14;;;;;;;13.93;3.40;;;4.40;99.90;;;;;;5015053;28;20091;-62
2020/12/21 06:02:40;;;;;;;13.20;3.58;;;4.50;99.90;;;;;;5022466;28;20442;-60
2020/12/21 06:05:08;;;;;;;32.40;10.98;;;4.50;99.90;;;;;;5017297;28;20026;-62
2020/12/21 06:07:35;;;;;;;20.77;6.68;;;4.50;99.90;;;;;;5024879;28;20025;-62
2020/12/21 06:10:05;;;;;;;12.52;3.90;;;4.50;99.90;;;;;;5017001;28;20037;-62
2020/12/21 06:12:46;;;;;;;16.88;3.25;;;4.50;99.90;;;;;;5012624;28;20024;-63
2020/12/21 06:15:21;;;;;;;16.02;6.20;;;4.50;99.90;;;;;;5012176;28;20018;-63
2020/12/21 06:17:46;;;;;;;14.25;5.25;;;4.50;99.90;;;;;;5028562;28;20022;-60
2020/12/21 06:20:12;;;;;;;21.95;5.20;;;4.50;99.90;;;;;;5022433;28;20030;-60
2020/12/21 06:22:38;;;;;;;15.52;4.35;;;4.50;99.90;;;;;;5007585;28;20053;-62
2020/12/21 06:25:05;;;;;;;16.38;3.75;;;4.50;99.90;;;;;;5016477;28;20036;-61
2020/12/21 06:27:38;;;;;;;16.30;4.15;;;4.50;99.90;;;;;;5012370;28;20041;-63
2020/12/21 06:30:05;;;;;;;18.55;3.33;;;4.50;99.90;;;;;;5013431;28;20491;-64
2020/12/21 06:32:33;;;;;;;14.73;3.17;;;4.60;99.90;;;;;;5019598;28;20458;-62
2020/12/21 06:35:00;;;;;;;14.50;3.05;;;4.60;99.90;;;;;;5021764;28;20039;-61
2020/12/21 06:37:26;;;;;;;10.27;3.78;;;4.70;99.90;;;;;;5020256;28;20445;-64
2020/12/21 06:39:59;;;;;;;17.48;4.18;;;4.70;99.90;;;;;;5020340;28;20049;-64
2020/12/21 06:42:25;;;;;;;12.73;3.75;;;4.70;99.90;;;;;;5020589;28;20033;-62
2020/12/21 06:44:54;;;;;;;12.90;2.83;;;4.60;99.90;;;;;;5011934;28;20878;-62
2020/12/21 06:47:20;;;;;;;17.70;3.47;;;4.60;99.90;;;;;;5019388;28;20084;-61
2020/12/21 06:49:45;;;;;;;9.85;2.58;;;4.60;99.90;;;;;;5019455;28;20030;-62
2020/12/21 06:52:11;;;;;;;13.35;3.03;;;4.60;99.90;;;;;;5022279;28;20079;-62
2020/12/21 06:54:37;;;;;;;13.50;3.60;;;4.60;99.90;;;;;;5017910;28;20033;-61
2020/12/21 06:57:02;;;;;;;17.23;4.15;;;4.60;99.90;;;;;;5022866;28;20022;-61
2020/12/21 06:59:28;;;;;;;27.25;6.05;;;4.60;99.90;;;;;;5019510;28;20022;-63
2020/12/21 07:01:55;;;;;;;30.33;7.40;;;4.60;99.90;;;;;;5012218;28;20503;-62
2020/12/21 07:04:28;;;;;;;13.27;5.70;;;4.60;99.90;;;;;;5016875;28;20037;-62
2020/12/21 07:06:54;;;;;;;31.60;6.45;;;4.60;99.90;;;;;;5017204;28;20030;-62
2020/12/21 07:09:28;;;;;;;15.90;4.63;;;4.70;99.90;;;;;;5021373;28;20021;-62
2020/12/21 07:11:59;;;;;;;12.88;4.32;;;4.70;99.90;;;;;;5008561;28;20478;-61
2020/12/21 07:14:26;;;;;;;29.13;7.68;;;4.70;99.90;;;;;;4970765;28;20346;-59
2020/12/21 07:17:15;;;;;;;17.88;3.60;;;4.70;99.90;;;;;;5005462;28;20033;-61
2020/12/21 07:19:42;;;;;;;18.77;4.35;;;4.70;99.90;;;;;;5016015;28;20391;-61
2020/12/21 07:22:10;;;;;;;26.95;8.00;;;4.70;99.90;;;;;;5014938;28;20029;-62
2020/12/21 07:24:40;;;;;;;22.15;6.93;;;4.70;99.90;;;;;;5024922;28;20025;-62
2020/12/21 07:27:06;;;;;;;17.42;3.97;;;4.70;99.90;;;;;;5020354;28;20395;-62
2020/12/21 07:29:39;;;;;;;18.67;3.88;;;4.70;99.90;;;;;;5025543;28;20030;-62
2020/12/21 07:32:06;;;;;;;16.63;4.25;;;4.80;99.90;;;;;;5026184;28;20025;-61
2020/12/21 07:34:32;;;;;;;11.90;3.63;;;4.80;99.90;;;;;;5029729;28;20075;-62
2020/12/21 07:36:58;;;;;;;12.93;3.20;;;4.80;99.90;;;;;;5020595;28;20034;-62
2020/12/21 07:39:24;;;;;;;16.42;6.03;;;4.90;99.90;;;;;;5025315;28;20049;-62
2020/12/21 07:41:53;;;;;;;17.45;4.43;;;4.90;99.90;;;;;;5024115;28;20057;-62
2020/12/21 07:44:30;;;;;;;14.48;4.35;;;5.00;99.90;;;;;;5023630;28;20179;-62
2020/12/21 07:47:06;;;;;;;23.48;5.70;;;5.00;99.90;;;;;;5036079;28;20037;-61
2020/12/21 07:49:33;;;;;;;14.77;3.35;;;5.00;99.90;;;;;;5038400;28;20036;-62
2020/12/21 07:52:01;;;;;;;14.15;3.03;;;5.10;99.90;;;;;;5034831;28;20029;-62
2020/12/21 07:54:28;;;;;;;14.02;4.10;;;5.10;99.90;;;;;;5033483;28;20037;-62
2020/12/21 07:57:08;;;;;;;19.02;3.85;;;5.10;99.90;;;;;;5034446;28;20021;-62
2020/12/21 07:59:33;;;;;;;16.15;4.15;;;5.20;99.90;;;;;;5033853;28;20112;-61
2020/12/21 08:02:00;;;;;;;13.23;3.00;;;5.20;99.90;;;;;;5036800;28;20100;-60
2020/12/21 08:04:27;;;;;;;11.75;3.00;;;5.30;99.90;;;;;;5037810;28;20033;-60
2020/12/21 08:06:53;;;;;;;16.20;2.90;;;5.30;99.90;;;;;;5034566;28;20029;-62
2020/12/21 08:09:19;;;;;;;10.02;3.00;;;5.30;99.90;;;;;;5037893;28;20185;-61
2020/12/21 08:11:45;;;;;;;12.23;2.65;;;5.40;99.90;;;;;;5031837;28;20108;-60
2020/12/21 08:14:17;;;;;;;8.80;2.60;;;5.40;99.90;;;;;;5006035;28;20388;-62
2020/12/21 08:16:46;;;;;;;13.32;2.60;;;5.50;99.90;;;;;;5034356;28;20051;-62
2020/12/21 08:19:20;;;;;;;9.65;3.20;;;5.50;99.90;;;;;;5036186;28;20021;-63
2020/12/21 08:21:46;;;;;;;16.25;2.40;;;5.60;99.90;;;;;;5023459;28;20033;-62
2020/12/21 08:24:12;;;;;;;7.22;2.30;;;5.60;99.90;;;;;;5021800;28;20529;-63
2020/12/21 08:26:38;;;;;;;12.88;2.70;;;5.60;99.90;;;;;;5033033;28;20044;-62
2020/12/21 08:29:04;;;;;;;10.35;2.17;;;5.70;99.90;;;;;;5016726;28;20034;-63
2020/12/21 08:31:29;;;;;;;19.33;3.33;;;5.70;99.90;;;;;;5028054;28;20021;-62
2020/12/21 08:33:56;;;;;;;12.57;3.22;;;5.80;99.90;;;;;;5028664;28;20699;-63
2020/12/21 08:36:24;;;;;;;13.75;4.78;;;5.90;99.90;;;;;;5014425;28;20022;-62
2020/12/21 08:38:51;;;;;;;11.20;3.10;;;5.90;99.90;;;;;;5018192;28;20018;-62
2020/12/21 08:41:18;;;;;;;13.60;4.25;;;6.00;99.90;;;;;;5019094;28;20026;-63
2020/12/21 08:43:44;;;;;;;10.75;4.13;;;6.00;99.90;;;;;;5028578;28;20100;-61
2020/12/21 08:46:11;;;;;;;15.55;3.40;;;6.00;99.90;;;;;;5022166;28;20171;-63
2020/12/21 08:48:41;;;;;;;12.40;2.13;;;6.10;99.90;;;;;;5038561;28;20545;-61
2020/12/21 08:51:06;;;;;;;12.98;2.50;;;6.10;99.90;;;;;;5027315;28;20021;-60
2020/12/21 08:53:32;;;;;;;16.13;2.85;;;6.20;99.90;;;;;;5027678;28;20029;-61
2020/12/21 08:55:58;;;;;;;11.77;2.50;;;6.20;99.90;;;;;;5041407;28;20052;-61
2020/12/21 08:58:24;;;;;;;16.90;2.88;;;6.30;99.90;;;;;;5036015;28;20022;-62
2020/12/21 09:00:49;;;;;;;10.48;2.35;;;6.30;99.90;;;;;;5043942;28;20032;-60
2020/12/21 09:03:15;;;;;;;10.90;1.88;;;6.40;99.90;;;;;;5036736;28;20043;-63
2020/12/21 09:05:40;;;;;;;11.52;2.38;;;6.40;99.90;;;;;;5036751;28;20108;-61
2020/12/21 09:08:06;;;;;;;12.07;2.92;;;6.50;99.90;;;;;;5038209;28;20030;-63
2020/12/21 09:10:31;;;;;;;11.30;2.30;;;6.60;99.90;;;;;;5036995;28;20134;-62
2020/12/21 09:12:57;;;;;;;9.00;2.42;;;6.60;99.90;;;;;;5042343;28;20032;-62
2020/12/21 09:15:22;;;;;;;9.07;2.03;;;6.60;99.90;;;;;;5023159;28;20057;-62
2020/12/21 09:17:48;;;;;;;6.82;2.42;;;6.60;99.90;;;;;;5043833;28;20025;-62
2020/12/21 09:20:14;;;;;;;4.75;1.67;;;6.70;99.90;;;;;;5032570;28;20036;-62
2020/12/21 09:22:39;;;;;;;8.50;2.85;;;6.70;99.90;;;;;;5033746;28;20388;-63
2020/12/21 09:25:05;;;;;;;13.50;3.00;;;6.70;99.90;;;;;;5032365;28;20040;-63
2020/12/21 09:27:30;;;;;;;8.43;2.35;;;6.80;99.90;;;;;;5015296;28;20056;-62
2020/12/21 09:29:56;;;;;;;9.10;2.25;;;6.80;99.90;;;;;;5043205;28;20044;-61
2020/12/21 09:32:21;;;;;;;8.75;2.63;;;6.90;99.90;;;;;;5031200;28;20037;-63
2020/12/21 09:34:47;;;;;;;12.90;3.55;;;6.90;99.90;;;;;;5043455;28;20087;-61
2020/12/21 09:37:12;;;;;;;15.90;3.00;;;7.00;99.90;;;;;;5039456;28;20119;-63
2020/12/21 09:39:38;;;;;;;15.30;3.03;;;7.00;99.90;;;;;;5043956;28;20029;-62
2020/12/21 09:42:04;;;;;;;11.52;2.90;;;7.00;99.90;;;;;;5038431;28;20037;-62
2020/12/21 09:44:30;;;;;;;13.43;3.03;;;7.00;99.90;;;;;;5036548;28;20037;-63
2020/12/21 09:46:56;;;;;;;9.23;3.15;;;7.10;99.90;;;;;;5033413;28;20037;-62
2020/12/21 09:49:21;;;;;;;11.43;2.65;;;7.10;99.90;;;;;;5041297;28;20037;-62
2020/12/21 09:51:50;;;;;;;18.77;3.72;;;7.20;99.90;;;;;;5033832;28;20060;-61
2020/12/21 09:54:16;;;;;;;11.57;3.40;;;7.30;99.90;;;;;;5039851;28;20029;-62
2020/12/21 09:56:46;;;;;;;11.13;2.80;;;7.30;99.90;;;;;;5038461;28;20087;-61
2020/12/21 09:59:11;;;;;;;13.15;3.03;;;7.30;99.90;;;;;;5034677;28;20021;-62
2020/12/21 10:01:37;;;;;;;17.13;3.30;;;7.30;99.90;;;;;;5028794;28;20040;-62
2020/12/21 10:04:02;;;;;;;9.15;2.90;;;7.40;99.90;;;;;;5033597;28;20033;-62
2020/12/21 10:06:28;;;;;;;9.07;2.67;;;7.50;99.90;;;;;;5031977;28;20580;-62
2020/12/21 10:08:53;;;;;;;12.88;3.85;;;7.50;99.90;;;;;;5033322;28;20065;-61
2020/12/21 10:11:19;;;;;;;11.55;3.08;;;7.60;99.90;;;;;;5037378;28;20036;-60
2020/12/21 10:13:44;;;;;;;10.93;3.20;;;7.70;99.90;;;;;;5027189;28;20674;-62
2020/12/21 10:16:10;;;;;;;10.52;2.75;;;7.70;99.90;;;;;;5023303;28;20044;-61
2020/12/21 10:18:35;;;;;;;9.63;2.72;;;7.80;99.90;;;;;;5032619;28;20022;-62
2020/12/21 10:21:02;;;;;;;8.73;2.78;;;7.90;99.90;;;;;;5024636;28;20044;-62
2020/12/21 10:23:28;;;;;;;6.47;2.70;;;8.00;99.90;;;;;;5032339;28;20029;-62
2020/12/21 10:25:53;;;;;;;15.02;3.33;;;8.10;99.90;;;;;;5029448;28;20161;-62
2020/12/21 10:28:19;;;;;;;9.63;3.33;;;8.20;99.90;;;;;;5038824;28;20746;-62
2020/12/21 10:30:44;;;;;;;7.70;3.25;;;8.30;99.90;;;;;;5036846;28;20026;-62
2020/12/21 10:33:10;;;;;;;14.38;4.30;;;8.40;99.90;;;;;;5039236;28;20042;-61
2020/12/21 10:35:39;;;;;;;11.10;4.03;;;8.40;99.90;;;;;;5036580;28;20021;-62
2020/12/21 10:38:05;;;;;;;14.20;5.00;;;8.50;99.90;;;;;;5038888;28;20021;-62
2020/12/21 10:40:30;;;;;;;13.05;5.45;;;8.50;99.90;;;;;;5038407;28;20038;-61
2020/12/21 10:42:56;;;;;;;15.38;6.32;;;8.60;99.90;;;;;;5034363;28;20069;-62
2020/12/21 10:45:21;;;;;;;20.10;4.80;;;8.60;99.90;;;;;;5019749;28;20037;-62
2020/12/21 10:47:47;;;;;;;13.52;3.92;;;8.60;99.90;;;;;;5035432;28;20112;-61
2020/12/21 10:50:12;;;;;;;14.57;4.97;;;8.70;99.90;;;;;;5036654;28;20392;-63
2020/12/21 10:52:38;;;;;;;14.65;5.60;;;8.70;99.90;;;;;;5019550;28;20076;-63
2020/12/21 10:55:04;;;;;;;34.88;13.35;;;8.90;99.90;;;;;;5031897;28;20083;-62
2020/12/21 10:57:30;;;;;;;14.90;5.68;;;8.90;99.90;;;;;;5030195;28;20033;-63
2020/12/21 10:59:55;;;;;;;11.27;4.00;;;9.00;99.90;;;;;;5032183;28;20487;-63
2020/12/21 11:02:21;;;;;;;13.18;4.40;;;9.00;99.90;;;;;;5033383;28;20051;-63
2020/12/21 11:04:47;;;;;;;13.48;5.20;;;9.00;99.90;;;;;;5036732;28;20112;-62
2020/12/21 11:07:13;;;;;;;10.48;4.75;;;8.90;99.90;;;;;;5033233;28;20215;-63
2020/12/21 11:09:38;;;;;;;12.18;4.88;;;8.80;99.90;;;;;;5032604;28;20067;-63
2020/12/21 11:12:04;;;;;;;8.57;4.93;;;8.70;99.90;;;;;;5036128;28;20113;-62
2020/12/21 11:14:30;;;;;;;12.73;5.32;;;8.70;99.90;;;;;;5038885;28;20558;-63
2020/12/21 11:16:57;;;;;;;13.20;5.53;;;8.60;99.90;;;;;;5020462;28;20495;-62
2020/12/21 11:19:23;;;;;;;17.05;5.00;;;8.60;99.90;;;;;;5039225;28;20075;-61
2020/12/21 11:21:49;;;;;;;14.63;6.88;;;8.50;99.90;;;;;;5034017;28;20040;-60
2020/12/21 11:24:14;;;;;;;11.82;4.80;;;8.50;99.90;;;;;;5030726;28;20029;-63
2020/12/21 11:26:40;;;;;;;10.65;4.63;;;8.40;99.90;;;;;;5034532;28;20029;-60
2020/12/21 11:29:05;;;;;;;14.38;4.70;;;8.40;99.90;;;;;;5026443;28;20065;-61
2020/12/21 11:31:32;;;;;;;18.75;6.57;;;8.50;99.90;;;;;;5029785;28;20025;-62
2020/12/21 11:33:58;;;;;;;11.75;5.32;;;8.50;99.90;;;;;;5035470;28;20018;-61
2020/12/21 11:36:24;;;;;;;12.10;4.75;;;8.60;99.90;;;;;;5041165;28;20040;-61
2020/12/21 11:38:49;;;;;;;12.80;5.15;;;8.60;99.90;;;;;;5037738;28;20021;-59
2020/12/21 11:41:15;;;;;;;7.65;3.70;;;8.60;99.90;;;;;;5042977;28;20052;-62
2020/12/21 11:43:40;;;;;;;17.33;6.22;;;8.50;99.90;;;;;;5028373;28;20037;-61
2020/12/21 11:46:06;;;;;;;18.63;7.82;;;8.50;99.90;;;;;;5034368;28;20447;-63
2020/12/21 11:48:32;;;;;;;23.48;7.05;;;8.50;99.90;;;;;;5039921;28;20025;-61
2020/12/21 11:50:57;;;;;;;14.43;5.15;;;8.50;99.90;;;;;;5030983;28;20125;-63
2020/12/21 11:53:23;;;;;;;16.77;6.32;;;8.50;99.90;;;;;;5024490;28;20029;-63
2020/12/21 11:55:48;;;;;;;14.45;4.40;;;8.40;99.90;;;;;;5031416;28;20022;-61
2020/12/21 11:58:14;;;;;;;14.82;3.83;;;8.40;99.90;;;;;;5018363;28;20490;-63
2020/12/21 12:00:39;;;;;;;14.32;4.55;;;8.40;99.90;;;;;;5019635;28;20025;-63
2020/12/21 12:03:05;;;;;;;10.23;3.95;;;8.40;99.90;;;;;;5028654;28;20026;-63
2020/12/21 12:05:31;;;;;;;8.65;2.92;;;8.40;99.90;;;;;;5014777;28;20033;-62
2020/12/21 12:07:56;;;;;;;18.33;7.15;;;8.50;99.90;;;;;;5033760;28;20586;-63
2020/12/21 12:10:22;;;;;;;10.85;3.80;;;8.50;99.90;;;;;;5020735;28;20127;-63
2020/12/21 12:12:48;;;;;;;9.00;3.55;;;8.60;99.90;;;;;;5039193;28;20482;-63
2020/12/21 12:15:13;;;;;;;14.15;3.45;;;8.60;99.90;;;;;;5005654;28;20550;-62
2020/12/21 12:17:39;;;;;;;7.07;3.13;;;8.60;99.90;;;;;;5022695;28;20388;-63
2020/12/21 12:20:05;;;;;;;10.30;3.10;;;8.60;99.90;;;;;;5028677;28;20025;-63
2020/12/21 12:22:31;;;;;;;20.23;6.05;;;8.60;99.90;;;;;;5020089;28;20028;-63
2020/12/21 12:24:56;;;;;;;12.25;5.38;;;8.60;99.90;;;;;;5019942;28;20105;-63
2020/12/21 12:27:22;;;;;;;13.43;4.00;;;8.50;99.90;;;;;;5022630;28;20018;-63
2020/12/21 12:29:47;;;;;;;13.27;4.63;;;8.50;99.90;;;;;;5032118;28;20024;-63
2020/12/21 12:32:13;;;;;;;5.93;2.67;;;8.50;99.90;;;;;;5019166;28;20029;-63
2020/12/21 12:34:39;;;;;;;7.90;3.47;;;8.60;99.90;;;;;;5042340;28;20056;-61
2020/12/21 12:37:05;;;;;;;19.45;6.25;;;8.60;99.90;;;;;;5033454;28;20076;-61
2020/12/21 12:39:30;;;;;;;7.40;4.35;;;8.60;99.90;;;;;;5035129;28;20060;-63
2020/12/21 12:41:56;;;;;;;10.85;3.75;;;8.50;99.90;;;;;;5030452;28;20025;-63
2020/12/21 12:44:21;;;;;;;6.93;3.13;;;8.50;99.90;;;;;;5036727;28;20049;-62